首页
METAR-TAF:

METAR-TAF

机场 :

馬丁尼克-亞米-凱薩國際機場

法兰西堡, 馬提尼克

纬度: 14-36N, 经度: 061-00W, 海拔: 5米

当前天气观测

该预报发布于36分钟前的12:00 UTC
风速14节,风向,在东转东北东转东南之间变化
温度 29°C
湿度 66%
气压 1017 hPa
能见度10公里或以上
散云层高于2700英尺

METAR: TFFF 181200Z AUTO 10014KT 060V120 9999 SCT027 29/22 Q1017 NOSIG

时间: 08:36 (12:36 UTC)

预报

该预报发布于1小时和36分钟前的11:00 UTC
预报有效从18日的 12点(UTC)到 19日的 12点(UTC)
风速12节,风向
能见度10公里或以上
散云层高于3000英尺
短暂存在
从 18日的 14点(UTC)到 19日的 12点(UTC)
能見度: 3000
少量云层高于1300英尺, 积雨云.
多云层高于1500英尺
阵雨
几率 40% :
短暂存在
从 18日的 16点(UTC)到 18日的 21点(UTC)
风速15节,风向多变,有时为30节阵风
能見度: 1000
散云层高于1100英尺, 积雨云.
多云层高于1300英尺
雷暴, 雨
几率 30% :
短暂存在
从 19日的 03点(UTC)到 19日的 09点(UTC)
风速15节,风向多变,有时为25节阵风
能見度: 1000
散云层高于1100英尺, 积雨云.
多云层高于1300英尺
雷暴, 雨

TAF: TFFF 181100Z 1812/1912 10012KT 9999 SCT030 TEMPO 1814/1912 3000 SHRA FEW013CB BKN015 PROB40 TEMPO 1816/1821 VRB15G30KT 1000 TSRA SCT011CB BKN013 PROB30 TEMPO 1903/1909 VRB15G25KT 1000 TSRA SCT011CB BKN013

超过4000个机场的气象观测和天气预报(METAR&TAF报告)。

可查询的气象台以黄色和红色小点在地图上表示。

将鼠标移到小点上方,可查看气象台名称。

然后点击查看天气观测和预报。

如需切换地图:点击带黑十字的绿色按钮放大地图;点击带横线的绿色按钮缩小地图;或者点击绿色箭头查看邻近地区的地图。


METAR-TAF: